createdAt,value
2019-02-10T00:00:43.254Z,60.10
2019-02-10T00:03:18.350Z,60.14
2019-02-10T00:05:52.287Z,59.86
2019-02-10T00:08:25.806Z,59.93
2019-02-10T00:10:59.875Z,59.93
2019-02-10T00:13:36.299Z,60.09
2019-02-10T00:16:19.297Z,59.71
2019-02-10T00:18:53.092Z,59.93
2019-02-10T00:21:26.799Z,60.04
2019-02-10T00:24:00.333Z,60.04
2019-02-10T00:26:36.301Z,60.17
2019-02-10T00:29:09.741Z,60.44
2019-02-10T00:31:43.314Z,60.38
2019-02-10T00:34:17.291Z,60.48
2019-02-10T00:36:50.634Z,60.53
2019-02-10T00:39:24.595Z,60.53
2019-02-10T00:41:58.281Z,60.84
2019-02-10T00:44:31.958Z,60.99
2019-02-10T00:47:03.878Z,61.34
2019-02-10T00:49:37.130Z,61.60
2019-02-10T00:52:10.383Z,61.97
2019-02-10T00:54:43.805Z,62.37
2019-02-10T00:57:17.421Z,62.57
2019-02-10T00:59:50.756Z,62.41
2019-02-10T01:02:24.127Z,62.37
2019-02-10T01:04:57.327Z,62.37
2019-02-10T01:07:31.651Z,62.54
2019-02-10T01:10:05.323Z,62.54
2019-02-10T01:12:38.795Z,62.49
2019-02-10T01:15:12.287Z,62.49
2019-02-10T01:17:45.786Z,62.49
2019-02-10T01:20:19.121Z,62.63
2019-02-10T01:22:52.283Z,62.49
2019-02-10T01:25:25.599Z,62.58
2019-02-10T01:27:58.959Z,62.58
2019-02-10T01:30:31.007Z,62.64
2019-02-10T01:33:04.294Z,62.47
2019-02-10T01:35:37.307Z,62.44
2019-02-10T01:38:10.713Z,62.37
2019-02-10T01:40:43.944Z,62.39
2019-02-10T01:43:17.197Z,62.35
2019-02-10T01:45:50.323Z,62.45
2019-02-10T01:48:23.655Z,62.33
2019-02-10T01:50:56.945Z,62.33
2019-02-10T01:53:30.077Z,62.61
2019-02-10T01:56:01.870Z,62.43
2019-02-10T01:58:35.080Z,62.37
2019-02-10T02:01:06.915Z,62.34
2019-02-10T02:03:39.953Z,62.29
2019-02-10T02:06:13.126Z,62.21
2019-02-10T02:08:46.326Z,62.15
2019-02-10T02:11:19.633Z,62.57
2019-02-10T02:13:52.910Z,62.57
2019-02-10T02:16:24.681Z,62.66
2019-02-10T02:18:57.946Z,62.69
2019-02-10T02:21:31.099Z,62.41
2019-02-10T02:24:04.282Z,62.18
2019-02-10T02:26:37.375Z,61.78
2019-02-10T02:29:10.708Z,61.78
2019-02-10T02:31:43.953Z,61.71
2019-02-10T02:34:17.110Z,61.97
2019-02-10T02:36:48.876Z,61.97
2019-02-10T02:39:21.951Z,61.70
2019-02-10T02:41:55.273Z,61.52
2019-02-10T02:44:28.585Z,61.03
2019-02-10T02:47:01.924Z,61.03
2019-02-10T02:49:35.127Z,61.23
2019-02-10T02:52:07.042Z,61.12
2019-02-10T02:54:38.787Z,61.06
2019-02-10T02:57:11.967Z,61.13
2019-02-10T02:59:43.883Z,61.26
2019-02-10T03:02:16.955Z,61.17
2019-02-10T03:04:48.694Z,60.75
2019-02-10T03:07:21.876Z,60.75
2019-02-10T03:09:55.137Z,60.77
2019-02-10T03:12:26.884Z,60.77
2019-02-10T03:15:00.309Z,60.95
2019-02-10T03:17:33.714Z,61.09
2019-02-10T03:20:07.293Z,61.14
2019-02-10T03:22:40.687Z,61.15
2019-02-10T03:25:13.953Z,61.15
2019-02-10T03:27:47.109Z,61.08
2019-02-10T03:30:20.149Z,61.00
2019-02-10T03:32:53.323Z,60.84
2019-02-10T03:35:26.569Z,60.44
2019-02-10T03:37:59.924Z,60.44
2019-02-10T03:40:31.696Z,60.33
2019-02-10T03:43:04.912Z,60.07
2019-02-10T03:45:38.132Z,59.93
2019-02-10T03:48:11.391Z,59.78
2019-02-10T03:50:44.702Z,59.66
2019-02-10T03:53:17.962Z,59.49
2019-02-10T03:55:49.879Z,59.36
2019-02-10T03:58:23.276Z,59.19
2019-02-10T04:00:56.405Z,59.06
2019-02-10T04:03:29.703Z,59.06
2019-02-10T04:06:02.946Z,58.92
2019-02-10T04:08:36.132Z,58.67
2019-02-10T04:11:09.296Z,58.61
2019-02-10T04:13:42.676Z,58.76
2019-02-10T04:16:15.910Z,58.76
2019-02-10T04:18:47.853Z,58.78
2019-02-10T04:21:20.964Z,58.81
2019-02-10T04:23:52.798Z,58.87
2019-02-10T04:26:25.941Z,58.85
2019-02-10T04:28:59.293Z,59.16
2019-02-10T04:31:32.544Z,59.16
2019-02-10T04:34:05.809Z,59.16
2019-02-10T04:36:39.094Z,59.13
2019-02-10T04:39:12.283Z,59.11
2019-02-10T04:41:45.672Z,58.78
2019-02-10T04:44:18.974Z,58.78
2019-02-10T04:46:52.294Z,58.51
2019-02-10T04:49:25.338Z,58.24
2019-02-10T04:51:58.695Z,58.36
2019-02-10T04:54:32.013Z,58.36
2019-02-10T04:57:03.667Z,58.41
2019-02-10T04:59:36.883Z,58.20
2019-02-10T05:02:10.136Z,58.20
2019-02-10T05:04:43.370Z,58.12
2019-02-10T05:07:16.643Z,58.12
2019-02-10T05:09:49.981Z,58.17
2019-02-10T05:12:22.041Z,58.14
2019-02-10T05:14:53.875Z,58.14
2019-02-10T05:17:27.122Z,58.26
2019-02-10T05:20:00.319Z,57.68
2019-02-10T05:22:33.689Z,57.68
2019-02-10T05:25:07.326Z,57.74
2019-02-10T05:27:40.653Z,57.75
2019-02-10T05:30:13.951Z,57.75
2019-02-10T05:32:47.087Z,57.46
2019-02-10T05:35:20.286Z,57.46
2019-02-10T05:37:53.494Z,57.54
2019-02-10T05:40:26.737Z,57.54
2019-02-10T05:42:59.956Z,57.64
2019-02-10T05:45:33.120Z,57.73
2019-02-10T05:48:06.296Z,57.77
2019-02-10T05:50:39.596Z,57.63
2019-02-10T05:53:11.569Z,57.63
2019-02-10T05:55:44.755Z,57.37
2019-02-10T05:58:18.075Z,57.37
2019-02-10T06:00:51.113Z,57.29
2019-02-10T06:03:24.276Z,57.25
2019-02-10T06:05:57.402Z,57.49
2019-02-10T06:08:30.659Z,57.49
2019-02-10T06:11:03.920Z,57.10
2019-02-10T06:13:37.267Z,57.15
2019-02-10T06:16:10.301Z,57.16
2019-02-10T06:18:43.355Z,57.17
2019-02-10T06:21:16.673Z,57.26
2019-02-10T06:23:49.960Z,57.26
2019-02-10T06:26:21.866Z,57.13
2019-02-10T06:28:54.948Z,57.10
2019-02-10T06:31:26.788Z,57.06
2019-02-10T06:33:59.953Z,56.97
2019-02-10T06:36:33.272Z,56.86
2019-02-10T06:39:07.273Z,56.14
2019-02-10T06:41:40.369Z,55.59
2019-02-10T06:44:13.741Z,55.59
2019-02-10T06:46:46.932Z,55.37
2019-02-10T06:49:20.239Z,55.00
2019-02-10T06:51:53.366Z,54.73
2019-02-10T06:54:26.661Z,54.73
2019-02-10T06:56:59.933Z,54.35
2019-02-10T06:59:53.943Z,54.03
2019-02-10T07:02:33.896Z,53.90
2019-02-10T07:05:08.489Z,53.81
2019-02-10T07:07:41.889Z,53.85
2019-02-10T07:10:15.106Z,53.82
2019-02-10T07:12:53.288Z,53.92
2019-02-10T07:16:20.693Z,53.55
2019-02-10T07:19:47.681Z,53.55
2019-02-10T07:22:58.354Z,53.34
2019-02-10T07:25:58.645Z,52.92
2019-02-10T07:29:52.338Z,52.92
2019-02-10T07:32:35.748Z,52.83
2019-02-10T07:36:06.281Z,54.03
2019-02-10T07:39:26.654Z,53.17
2019-02-10T07:42:50.692Z,53.17
2019-02-10T07:45:47.283Z,53.38
2019-02-10T07:48:50.333Z,53.38
2019-02-10T07:52:06.603Z,52.87
2019-02-10T07:55:13.693Z,52.87
2019-02-10T07:58:55.887Z,52.77
2019-02-10T08:02:42.584Z,52.86
2019-02-10T08:05:56.231Z,52.79
2019-02-10T08:09:10.870Z,52.34
2019-02-10T08:12:28.303Z,52.34
2019-02-10T08:15:42.957Z,52.25
2019-02-10T08:18:45.270Z,52.20
2019-02-10T08:22:32.112Z,51.94
2019-02-10T08:26:45.944Z,51.65
2019-02-10T08:30:04.861Z,51.65
2019-02-10T08:33:24.300Z,51.60
2019-02-10T08:36:53.934Z,51.45
2019-02-10T08:40:01.097Z,51.58
2019-02-10T08:43:48.871Z,51.32
2019-02-10T08:46:45.937Z,51.50
2019-02-10T08:49:44.280Z,51.29
2019-02-10T08:52:32.687Z,51.24
2019-02-10T08:55:06.307Z,51.16
2019-02-10T08:57:39.719Z,51.11
2019-02-10T09:00:13.623Z,51.12
2019-02-10T09:02:47.949Z,51.24
2019-02-10T09:05:21.581Z,51.17
2019-02-10T09:07:54.937Z,51.17
2019-02-10T09:10:28.270Z,50.97
2019-02-10T09:13:01.568Z,50.63
2019-02-10T09:15:35.638Z,50.63
2019-02-10T09:18:09.275Z,50.57
2019-02-10T09:20:42.779Z,50.57
2019-02-10T09:23:16.128Z,50.57
2019-02-10T09:25:49.663Z,50.21
2019-02-10T09:28:22.943Z,50.21
2019-02-10T09:30:55.008Z,50.27
2019-02-10T09:33:27.039Z,49.99
2019-02-10T09:35:58.855Z,49.71
2019-02-10T09:38:31.961Z,49.67
2019-02-10T09:41:04.940Z,49.55
2019-02-10T09:43:36.973Z,49.31
2019-02-10T09:46:10.277Z,49.21
2019-02-10T09:48:43.788Z,49.08
2019-02-10T09:51:16.946Z,49.08
2019-02-10T09:53:49.944Z,49.03
2019-02-10T09:56:23.120Z,48.92
2019-02-10T09:58:56.283Z,48.60
2019-02-10T10:01:29.287Z,47.68
2019-02-10T10:04:02.682Z,46.90
2019-02-10T10:06:35.938Z,46.90
2019-02-10T10:09:09.669Z,45.66
2019-02-10T10:11:42.940Z,43.73
2019-02-10T10:14:16.089Z,42.89
2019-02-10T10:16:49.278Z,43.03
2019-02-10T10:19:22.308Z,41.71
2019-02-10T10:21:55.700Z,41.15
2019-02-10T10:24:29.688Z,41.15
2019-02-10T10:27:02.946Z,40.01
2019-02-10T10:29:35.024Z,39.29
2019-02-10T10:32:07.007Z,38.95
2019-02-10T10:34:38.695Z,38.73
2019-02-10T10:37:11.940Z,38.71
2019-02-10T10:39:43.727Z,38.94
2019-02-10T10:42:16.941Z,38.86
2019-02-10T10:44:50.123Z,37.51
2019-02-10T10:47:23.905Z,38.01
2019-02-10T10:49:57.274Z,38.01
2019-02-10T10:52:30.673Z,39.33
2019-02-10T10:55:03.939Z,40.71
2019-02-10T10:57:35.773Z,41.78
2019-02-10T11:00:10.660Z,43.67
2019-02-10T11:02:43.934Z,43.67
2019-02-10T11:05:15.655Z,44.54
2019-02-10T11:07:48.936Z,45.10
2019-02-10T11:10:22.273Z,45.25
2019-02-10T11:12:55.409Z,45.92
2019-02-10T11:15:28.679Z,46.63
2019-02-10T11:18:01.940Z,47.17
2019-02-10T11:20:33.971Z,47.50
2019-02-10T11:23:07.276Z,47.85
2019-02-10T11:25:40.304Z,47.99
2019-02-10T11:28:13.674Z,48.06
2019-02-10T11:30:46.941Z,48.14
2019-02-10T11:33:18.912Z,48.62
2019-02-10T11:35:52.143Z,48.93
2019-02-10T11:38:25.655Z,49.14
2019-02-10T11:40:59.944Z,49.14
2019-02-10T11:43:31.813Z,49.43
2019-02-10T11:46:05.938Z,49.88
2019-02-10T11:48:39.270Z,49.91
2019-02-10T11:51:12.307Z,50.21
2019-02-10T11:53:46.804Z,50.24
2019-02-10T11:56:18.809Z,50.24
2019-02-10T11:58:51.938Z,50.45
2019-02-10T12:01:25.132Z,50.70
2019-02-10T12:03:58.648Z,50.99
2019-02-10T12:06:31.949Z,50.99
2019-02-10T12:09:05.483Z,50.97
2019-02-10T12:11:39.074Z,50.94
2019-02-10T12:14:12.293Z,51.01
2019-02-10T12:16:45.665Z,50.69
2019-02-10T12:19:18.874Z,50.69
2019-02-10T12:21:52.118Z,50.80
2019-02-10T12:24:25.354Z,50.70
2019-02-10T12:26:58.707Z,50.58
2019-02-10T12:29:31.943Z,50.52
2019-02-10T12:32:05.265Z,50.07
2019-02-10T12:34:38.645Z,49.38
2019-02-10T12:37:11.939Z,49.38
2019-02-10T12:39:45.108Z,49.13
2019-02-10T12:42:18.278Z,48.92
2019-02-10T12:44:51.634Z,48.64
2019-02-10T12:47:24.934Z,48.64
2019-02-10T12:49:58.220Z,48.55
2019-02-10T12:52:31.324Z,48.29
2019-02-10T12:55:04.625Z,48.32
2019-02-10T12:57:38.105Z,48.32
2019-02-10T13:00:15.113Z,47.91
2019-02-10T13:02:48.436Z,48.16
2019-02-10T13:05:21.702Z,48.16
2019-02-10T13:07:54.949Z,47.89
2019-02-10T13:10:28.341Z,47.61
2019-02-10T13:13:01.879Z,47.45
2019-02-10T13:15:35.171Z,47.45
2019-02-10T13:18:08.682Z,47.25
2019-02-10T13:20:42.436Z,47.25
2019-02-10T13:23:16.366Z,47.27
2019-02-10T13:25:50.789Z,47.19
2019-02-10T13:28:23.947Z,46.93
2019-02-10T13:30:55.855Z,46.69
2019-02-10T13:33:28.951Z,46.35
2019-02-10T13:36:00.868Z,46.29
2019-02-10T13:38:34.261Z,46.12
2019-02-10T13:41:07.678Z,45.98
2019-02-10T13:43:40.943Z,45.86
2019-02-10T13:46:12.859Z,45.64
2019-02-10T13:48:46.279Z,46.11
2019-02-10T13:51:19.310Z,46.09
2019-02-10T13:53:52.863Z,46.09
2019-02-10T13:56:26.097Z,46.45
2019-02-10T13:58:59.271Z,46.17
2019-02-10T14:01:32.330Z,45.90
2019-02-10T14:04:05.674Z,45.83
2019-02-10T14:06:38.934Z,45.76
2019-02-10T14:09:10.704Z,45.81
2019-02-10T14:11:43.933Z,45.40
2019-02-10T14:14:17.067Z,45.04
2019-02-10T14:16:50.656Z,44.53
2019-02-10T14:19:23.867Z,44.53
2019-02-10T14:21:57.127Z,44.67
2019-02-10T14:24:30.617Z,44.83
2019-02-10T14:27:03.954Z,45.08
2019-02-10T14:31:25.670Z,46.07
2019-02-10T14:33:59.308Z,46.07
2019-02-10T14:36:32.787Z,45.99
2019-02-10T14:39:06.681Z,46.45
2019-02-10T14:41:39.945Z,46.45
2019-02-10T14:44:11.994Z,46.97
2019-02-10T14:46:45.269Z,46.85
2019-02-10T14:49:18.535Z,46.99
2019-02-10T14:51:52.117Z,46.99
2019-02-10T14:54:24.297Z,47.05
2019-02-10T14:56:57.576Z,47.17
2019-02-10T14:59:30.956Z,47.17
2019-02-10T15:02:02.872Z,47.12
2019-02-10T15:04:36.271Z,47.05
2019-02-10T15:07:09.789Z,47.22
2019-02-10T15:09:43.123Z,47.36
2019-02-10T15:12:16.874Z,47.29
2019-02-10T15:14:50.278Z,47.32
2019-02-10T15:17:23.642Z,47.02
2019-02-10T15:19:57.262Z,47.02
2019-02-10T15:22:30.647Z,47.04
2019-02-10T15:25:04.280Z,47.04
2019-02-10T15:27:37.669Z,47.39
2019-02-10T15:30:12.883Z,47.39
2019-02-10T15:32:46.137Z,47.46
2019-02-10T15:35:20.343Z,47.85
2019-02-10T15:37:53.787Z,47.85
2019-02-10T15:40:27.279Z,47.65
2019-02-10T15:43:00.927Z,47.72
2019-02-10T15:45:34.275Z,47.71
2019-02-10T15:48:09.486Z,47.71
2019-02-10T15:50:43.271Z,47.76
2019-02-10T15:53:16.950Z,47.73
2019-02-10T15:55:49.276Z,47.66
2019-02-10T15:58:22.665Z,47.68
2019-02-10T16:00:57.063Z,47.68
2019-02-10T16:03:29.016Z,47.78
2019-02-10T16:06:01.958Z,47.89
2019-02-10T16:08:33.656Z,47.57
2019-02-10T16:13:51.359Z,47.72
2019-02-10T16:16:24.949Z,47.76
2019-02-10T16:18:56.682Z,47.94
2019-02-10T16:21:30.273Z,48.09
2019-02-10T16:24:03.359Z,48.59
2019-02-10T16:26:36.879Z,48.59
2019-02-10T16:29:10.256Z,49.17
2019-02-10T16:31:43.644Z,49.70
2019-02-10T16:34:17.159Z,49.70
2019-02-10T16:36:50.295Z,50.05
2019-02-10T16:39:23.896Z,50.25
2019-02-10T16:41:56.950Z,50.43
2019-02-10T16:44:30.611Z,50.57
2019-02-10T16:47:03.946Z,50.54
2019-02-10T16:49:36.106Z,50.69
2019-02-10T16:52:09.304Z,51.06
2019-02-10T16:54:43.100Z,51.36
2019-02-10T16:57:16.312Z,52.42
2019-02-10T16:59:49.715Z,52.84
2019-02-10T17:02:23.074Z,52.88
2019-02-10T17:04:56.330Z,52.88
2019-02-10T17:07:29.941Z,53.43
2019-02-10T17:10:03.269Z,53.76
2019-02-10T17:12:36.700Z,54.24
2019-02-10T17:15:11.307Z,54.24
2019-02-10T17:17:44.670Z,54.75
2019-02-10T17:20:18.284Z,55.00
2019-02-10T17:22:51.703Z,55.82
2019-02-10T17:25:25.263Z,55.82
2019-02-10T17:27:58.723Z,55.59
2019-02-10T17:30:32.098Z,55.59
2019-02-10T17:33:05.335Z,55.95
2019-02-10T17:35:38.671Z,56.00
2019-02-10T17:38:11.944Z,56.65
2019-02-10T17:41:14.095Z,56.71
2019-02-10T17:43:47.673Z,57.24
2019-02-10T17:46:21.094Z,57.24
2019-02-10T17:48:54.335Z,57.20
2019-02-10T17:51:28.110Z,57.31
2019-02-10T17:54:01.330Z,57.27
2019-02-10T17:56:34.945Z,57.24
2019-02-10T18:01:55.560Z,57.75
2019-02-10T18:04:37.217Z,57.75
2019-02-10T18:07:05.547Z,57.94
2019-02-10T18:09:39.099Z,58.07
2019-02-10T18:12:12.350Z,58.87
2019-02-10T18:18:19.351Z,59.37
2019-02-10T18:21:24.159Z,59.37
2019-02-10T18:24:22.281Z,59.87
2019-02-10T18:27:23.719Z,60.69
2019-02-10T18:30:16.412Z,60.69
2019-02-10T18:33:14.695Z,61.04
2019-02-10T18:36:06.640Z,61.28
2019-02-10T18:38:50.143Z,61.37
2019-02-10T18:41:42.361Z,61.51
2019-02-10T18:44:24.670Z,61.54
2019-02-10T18:47:16.535Z,61.81
2019-02-10T18:50:07.607Z,61.97
2019-02-10T18:52:59.940Z,61.91
2019-02-10T18:55:41.422Z,61.76
2019-02-10T18:58:38.687Z,62.02
2019-02-10T19:01:28.277Z,62.36
2019-02-10T19:04:22.940Z,62.48
2019-02-10T19:07:07.571Z,62.48
2019-02-10T19:10:00.743Z,62.67
2019-02-10T19:12:43.686Z,62.99
2019-02-10T19:15:37.690Z,63.01
2019-02-10T19:18:23.290Z,63.05
2019-02-10T19:21:27.947Z,62.83
2019-02-10T19:24:24.395Z,62.64
2019-02-10T19:27:14.286Z,62.64
2019-02-10T19:30:09.432Z,62.47
2019-02-10T19:32:58.337Z,62.07
2019-02-10T19:35:48.289Z,61.79
2019-02-10T19:38:37.782Z,62.01
2019-02-10T19:41:24.283Z,62.01
2019-02-10T19:44:10.499Z,62.04
2019-02-10T19:47:04.908Z,61.92
2019-02-10T19:49:54.493Z,61.76
2019-02-10T19:52:45.276Z,61.72
2019-02-10T19:55:37.424Z,61.90
2019-02-10T19:58:32.489Z,62.30
2019-02-10T20:01:36.701Z,62.67
2019-02-10T20:04:33.278Z,62.69
2019-02-10T20:07:24.298Z,62.30
2019-02-10T20:10:10.944Z,62.37
2019-02-10T20:13:07.859Z,62.37
2019-02-10T20:16:02.585Z,61.94
2019-02-10T20:18:57.887Z,61.86
2019-02-10T20:21:49.923Z,61.88
2019-02-10T20:24:34.661Z,61.93
2019-02-10T20:27:18.266Z,62.03
2019-02-10T20:30:03.937Z,62.00
2019-02-10T20:33:04.072Z,62.07
2019-02-10T20:36:02.274Z,61.50
2019-02-10T20:39:13.359Z,61.52
2019-02-10T20:41:51.494Z,61.52
2019-02-10T20:44:49.541Z,61.27
2019-02-10T20:47:51.116Z,61.17
2019-02-10T20:50:49.346Z,61.76
2019-02-10T20:53:40.269Z,61.76
2019-02-10T20:56:41.346Z,61.58
2019-02-10T20:59:39.286Z,61.58
2019-02-10T21:02:31.654Z,61.70
2019-02-10T21:05:14.341Z,61.70
2019-02-10T21:08:11.936Z,61.51
2019-02-10T21:11:05.582Z,61.83
2019-02-10T21:13:55.935Z,61.78
2019-02-10T21:16:46.576Z,61.67
2019-02-10T21:19:51.280Z,61.24
2019-02-10T21:22:45.640Z,61.30
2019-02-10T21:25:37.556Z,61.30
2019-02-10T21:28:39.671Z,62.22
2019-02-10T21:31:27.607Z,62.62
2019-02-10T21:34:32.094Z,63.28
2019-02-10T21:37:21.850Z,63.82
2019-02-10T21:40:22.493Z,63.90
2019-02-10T21:43:07.665Z,64.31
2019-02-10T21:45:58.478Z,64.80
2019-02-10T21:48:38.135Z,65.36
2019-02-10T21:51:11.657Z,65.80
2019-02-10T21:53:45.261Z,66.07
2019-02-10T21:56:18.721Z,65.26
2019-02-10T21:58:52.281Z,65.26
2019-02-10T22:01:25.640Z,64.16
2019-02-10T22:03:58.949Z,64.16
2019-02-10T22:06:32.301Z,63.75
2019-02-10T22:09:06.669Z,63.57
2019-02-10T22:11:41.233Z,63.57
2019-02-10T22:14:14.903Z,62.92
2019-02-10T22:18:40.861Z,62.71
2019-02-10T22:21:15.283Z,62.53
2019-02-10T22:23:48.628Z,62.04
2019-02-10T22:26:21.933Z,61.91
2019-02-10T22:28:55.267Z,62.20
2019-02-10T22:31:28.605Z,63.41
2019-02-10T22:34:02.075Z,63.41
2019-02-10T22:36:34.101Z,63.73
2019-02-10T22:39:07.949Z,63.57
2019-02-10T22:41:41.270Z,63.46
2019-02-10T22:44:14.687Z,63.27
2019-02-10T22:46:47.946Z,63.27
2019-02-10T22:49:20.061Z,63.34
2019-02-10T22:51:52.095Z,63.30
2019-02-10T22:54:25.324Z,63.29
2019-02-10T22:56:58.892Z,63.02
2019-02-10T22:59:32.273Z,63.02
2019-02-10T23:02:06.282Z,62.93
2019-02-10T23:04:39.682Z,62.58
2019-02-10T23:07:13.281Z,62.55
2019-02-10T23:09:45.292Z,62.55
2019-02-10T23:12:18.667Z,62.55
2019-02-10T23:14:52.128Z,62.55
2019-02-10T23:17:24.098Z,62.27
2019-02-10T23:19:57.317Z,62.19
2019-02-10T23:22:30.636Z,61.91
2019-02-10T23:25:03.938Z,61.91
2019-02-10T23:27:37.133Z,61.96
2019-02-10T23:30:10.677Z,61.82
2019-02-10T23:32:43.936Z,61.71
2019-02-10T23:35:17.283Z,61.83
2019-02-10T23:37:50.568Z,61.82
2019-02-10T23:40:23.950Z,61.82
2019-02-10T23:43:02.133Z,62.01
2019-02-10T23:45:33.289Z,62.11
2019-02-10T23:48:06.664Z,62.10
2019-02-10T23:50:39.958Z,62.10
2019-02-10T23:53:13.275Z,61.94
2019-02-10T23:55:46.643Z,61.91
2019-02-10T23:58:20.117Z,61.91
